Nao-Me-Toque, Brazil
Current Conditions -  °F | °C
As of 8:00 PM on Tuesday 25 Nov 2014 (Local Time) from SBPF Reporting Station
Broken Clouds Broken Clouds  
Wind Chill: 72°   Ceiling: 10000
Heat Index: 72°   Visibility: 6mi
Dew Point: 59°   Wind: 6mph
Humidity: 64%   Direction: 90°E
Pressure: 29.8"   Gusts: NA
Location:  28.46°S, 52.82°W
Report Text: SBPF 252200Z 09005KT 9999 FEW045 BKN100 22/15 Q1009
Loading
Personal Weather Stations






























Interactive Weather Map New forecast layout! Learn more

10-Day Weather Forecast

Advertisements
Track Severe Weather on mobile